createdAt,value
2019-01-15T00:02:20.903Z,90.61
2019-01-15T00:04:53.494Z,90.62
2019-01-15T00:07:26.423Z,90.42
2019-01-15T00:09:58.995Z,90.46
2019-01-15T00:12:31.578Z,90.67
2019-01-15T00:15:05.146Z,90.56
2019-01-15T00:17:37.719Z,90.38
2019-01-15T00:20:10.790Z,90.29
2019-01-15T00:22:43.450Z,90.44
2019-01-15T00:25:16.132Z,90.41
2019-01-15T00:27:48.788Z,90.58
2019-01-15T00:30:21.352Z,90.72
2019-01-15T00:32:53.974Z,90.56
2019-01-15T00:35:27.114Z,90.60
2019-01-15T00:37:59.734Z,90.68
2019-01-15T00:40:32.492Z,90.66
2019-01-15T00:43:05.189Z,90.44
2019-01-15T00:45:37.785Z,90.58
2019-01-15T00:48:13.737Z,90.65
2019-01-15T00:50:46.347Z,90.51
2019-01-15T00:53:18.982Z,90.36
2019-01-15T00:55:51.648Z,90.38
2019-01-15T00:58:24.294Z,90.32
2019-01-15T01:00:56.930Z,90.44
2019-01-15T01:03:29.490Z,90.43
2019-01-15T01:06:02.101Z,90.50
2019-01-15T01:08:34.652Z,90.53
2019-01-15T01:11:07.667Z,90.66
2019-01-15T01:13:40.298Z,90.52
2019-01-15T01:16:12.951Z,90.68
2019-01-15T01:18:45.539Z,90.74
2019-01-15T01:21:18.329Z,90.89
2019-01-15T01:23:50.871Z,91.16
2019-01-15T01:26:23.471Z,91.20
2019-01-15T01:28:56.051Z,90.95
2019-01-15T01:31:28.681Z,91.08
2019-01-15T01:34:01.275Z,91.25
2019-01-15T01:36:33.899Z,91.29
2019-01-15T01:39:09.664Z,91.29
2019-01-15T01:41:42.322Z,91.39
2019-01-15T01:44:14.935Z,91.34
2019-01-15T01:46:47.516Z,91.54
2019-01-15T01:49:20.099Z,91.74
2019-01-15T01:51:52.774Z,91.21
2019-01-15T01:54:25.429Z,91.35
2019-01-15T01:56:58.010Z,91.24
2019-01-15T01:59:30.586Z,91.40
2019-01-15T02:02:03.288Z,91.58
2019-01-15T02:04:35.821Z,91.53
2019-01-15T02:07:08.447Z,91.58
2019-01-15T02:09:41.141Z,91.18
2019-01-15T02:12:13.745Z,91.24
2019-01-15T02:14:46.258Z,91.33
2019-01-15T02:17:18.835Z,91.32
2019-01-15T02:19:51.512Z,91.24
2019-01-15T02:22:24.097Z,91.27
2019-01-15T02:24:56.665Z,91.57
2019-01-15T02:27:29.759Z,91.65
2019-01-15T02:30:02.371Z,91.72
2019-01-15T02:32:34.964Z,91.73
2019-01-15T02:35:08.671Z,91.78
2019-01-15T02:37:41.281Z,91.79
2019-01-15T02:40:14.397Z,91.94
2019-01-15T02:42:47.362Z,91.93
2019-01-15T02:45:22.231Z,91.91
2019-01-15T02:47:54.862Z,91.92
2019-01-15T02:50:28.334Z,91.96
2019-01-15T02:53:00.962Z,92.08
2019-01-15T02:55:33.540Z,92.23
2019-01-15T02:58:06.239Z,92.26
2019-01-15T03:00:38.851Z,92.34
2019-01-15T03:03:12.672Z,92.32
2019-01-15T03:05:45.304Z,92.38
2019-01-15T03:08:17.943Z,92.30
2019-01-15T03:10:50.531Z,92.03
2019-01-15T03:13:23.084Z,91.97
2019-01-15T03:15:55.688Z,91.93
2019-01-15T03:18:28.493Z,92.03
2019-01-15T03:21:01.100Z,92.07
2019-01-15T03:23:33.659Z,92.16
2019-01-15T03:26:06.291Z,92.17
2019-01-15T03:28:38.964Z,92.07
2019-01-15T03:31:11.636Z,91.96
2019-01-15T03:33:44.442Z,92.01
2019-01-15T03:36:17.016Z,91.92
2019-01-15T03:38:49.725Z,91.92
2019-01-15T03:41:22.407Z,92.04
2019-01-15T03:43:55.018Z,92.07
2019-01-15T03:46:27.699Z,92.13
2019-01-15T03:49:00.324Z,92.12
2019-01-15T03:51:32.876Z,92.06
2019-01-15T03:54:05.551Z,92.08
2019-01-15T03:56:38.355Z,92.14
2019-01-15T03:59:10.923Z,92.13
2019-01-15T04:01:43.574Z,92.27
2019-01-15T04:04:16.784Z,92.37
2019-01-15T04:06:49.489Z,92.31
2019-01-15T04:09:22.106Z,92.17
2019-01-15T04:11:54.825Z,92.33
2019-01-15T04:14:27.458Z,92.47
2019-01-15T04:17:00.006Z,92.37
2019-01-15T04:19:32.645Z,92.44
2019-01-15T04:22:05.252Z,92.63
2019-01-15T04:24:37.822Z,92.75
2019-01-15T04:27:10.398Z,92.86
2019-01-15T04:29:43.008Z,92.83
2019-01-15T04:32:15.652Z,92.79
2019-01-15T04:34:49.300Z,92.77
2019-01-15T04:37:22.038Z,92.74
2019-01-15T04:39:54.777Z,92.81
2019-01-15T04:42:27.419Z,92.88
2019-01-15T04:45:00.055Z,92.91
2019-01-15T04:47:32.685Z,92.91
2019-01-15T04:50:08.057Z,92.97
2019-01-15T04:52:42.642Z,93.02
2019-01-15T04:55:15.741Z,93.04
2019-01-15T04:57:47.565Z,92.91
2019-01-15T05:00:21.111Z,92.82
2019-01-15T05:02:55.613Z,92.83
2019-01-15T05:05:28.576Z,92.87
2019-01-15T05:08:01.197Z,92.92
2019-01-15T05:10:33.877Z,92.94
2019-01-15T05:13:06.595Z,92.96
2019-01-15T05:15:39.256Z,92.92
2019-01-15T05:18:11.859Z,92.86
2019-01-15T05:20:44.417Z,92.83
2019-01-15T05:23:17.062Z,92.86
2019-01-15T05:25:49.638Z,92.85
2019-01-15T05:28:22.235Z,92.86
2019-01-15T05:30:54.874Z,92.78
2019-01-15T05:33:27.470Z,92.75
2019-01-15T05:36:00.132Z,92.59
2019-01-15T05:38:32.812Z,92.51
2019-01-15T05:41:05.447Z,92.50
2019-01-15T05:43:38.102Z,92.49
2019-01-15T05:46:10.709Z,92.52
2019-01-15T05:48:43.396Z,92.47
2019-01-15T05:51:34.775Z,92.45
2019-01-15T05:54:07.580Z,92.49
2019-01-15T05:56:40.145Z,92.65
2019-01-15T05:59:12.739Z,92.46
2019-01-15T06:01:45.311Z,92.35
2019-01-15T06:04:18.265Z,92.31
2019-01-15T06:06:50.892Z,92.29
2019-01-15T06:09:23.526Z,92.22
2019-01-15T06:11:56.156Z,92.24
2019-01-15T06:14:28.917Z,92.29
2019-01-15T06:17:01.487Z,92.43
2019-01-15T06:19:34.091Z,92.53
2019-01-15T06:22:06.672Z,92.59
2019-01-15T06:24:39.569Z,92.48
2019-01-15T06:27:12.257Z,92.55
2019-01-15T06:29:44.890Z,92.74
2019-01-15T06:32:17.531Z,92.65
2019-01-15T06:34:50.138Z,92.64
2019-01-15T06:37:22.724Z,92.56
2019-01-15T06:39:55.078Z,92.55
2019-01-15T06:42:27.786Z,92.65
2019-01-15T06:45:00.368Z,92.97
2019-01-15T06:47:33.009Z,92.99
2019-01-15T06:50:06.482Z,92.74
2019-01-15T06:52:39.071Z,92.54
2019-01-15T06:55:14.358Z,92.32
2019-01-15T06:57:46.949Z,92.44
2019-01-15T07:00:22.939Z,92.64
2019-01-15T07:02:55.521Z,92.60
2019-01-15T07:05:28.819Z,92.55
2019-01-15T07:08:01.406Z,92.56
2019-01-15T07:10:37.745Z,92.71
2019-01-15T07:13:10.443Z,92.87
2019-01-15T07:15:43.432Z,92.98
2019-01-15T07:18:16.335Z,92.87
2019-01-15T07:20:48.990Z,92.98
2019-01-15T07:23:21.605Z,92.91
2019-01-15T07:25:54.278Z,92.91
2019-01-15T07:28:28.035Z,92.75
2019-01-15T07:31:01.773Z,92.66
2019-01-15T07:33:34.383Z,92.56
2019-01-15T07:36:06.976Z,92.42
2019-01-15T07:38:39.636Z,92.49
2019-01-15T07:41:12.282Z,92.58
2019-01-15T07:43:44.935Z,92.66
2019-01-15T07:46:17.519Z,92.87
2019-01-15T07:48:50.226Z,92.84
2019-01-15T07:51:22.917Z,92.82
2019-01-15T07:53:55.679Z,92.81
2019-01-15T07:56:28.470Z,92.75
2019-01-15T07:59:01.054Z,92.82
2019-01-15T08:01:33.763Z,92.91
2019-01-15T08:04:07.567Z,92.60
2019-01-15T08:06:40.163Z,92.45
2019-01-15T08:09:13.927Z,92.50
2019-01-15T08:11:46.978Z,92.61
2019-01-15T08:14:19.582Z,92.61
2019-01-15T08:16:52.237Z,92.54
2019-01-15T08:19:24.795Z,92.69
2019-01-15T08:21:57.494Z,92.91
2019-01-15T08:24:30.117Z,93.39
2019-01-15T08:27:02.689Z,93.64
2019-01-15T08:29:35.312Z,94.02
2019-01-15T08:32:07.942Z,94.22
2019-01-15T08:34:40.524Z,92.81
2019-01-15T08:37:13.078Z,92.23
2019-01-15T08:39:45.638Z,87.85
2019-01-15T08:42:18.187Z,81.68
2019-01-15T08:44:51.357Z,80.34
2019-01-15T08:47:24.374Z,78.47
2019-01-15T08:49:57.016Z,78.42
2019-01-15T08:52:30.919Z,77.78
2019-01-15T08:55:03.567Z,76.74
2019-01-15T08:57:36.099Z,73.50
2019-01-15T09:00:10.702Z,72.02
2019-01-15T09:02:43.286Z,73.76
2019-01-15T09:05:15.977Z,76.20
2019-01-15T09:07:48.523Z,79.18
2019-01-15T09:10:21.488Z,80.45
2019-01-15T09:12:54.069Z,81.77
2019-01-15T09:15:26.973Z,81.14
2019-01-15T09:17:59.585Z,80.72
2019-01-15T09:20:32.741Z,81.58
2019-01-15T09:23:05.437Z,80.40
2019-01-15T09:25:38.096Z,80.25
2019-01-15T09:28:10.674Z,79.37
2019-01-15T09:30:43.268Z,76.17
2019-01-15T09:33:15.788Z,70.48
2019-01-15T09:35:49.461Z,66.23
2019-01-15T09:38:22.179Z,64.80
2019-01-15T09:40:54.852Z,61.22
2019-01-15T09:43:27.846Z,61.14
2019-01-15T09:46:00.579Z,61.79
2019-01-15T09:48:35.655Z,64.76
2019-01-15T09:51:08.371Z,59.45
2019-01-15T09:53:41.001Z,58.07
2019-01-15T09:56:13.640Z,56.91
2019-01-15T09:58:46.304Z,56.96
2019-01-15T10:01:18.955Z,59.74
2019-01-15T10:03:54.031Z,59.08
2019-01-15T10:06:26.811Z,63.32
2019-01-15T10:08:59.400Z,65.55
2019-01-15T10:11:31.929Z,69.89
2019-01-15T10:14:05.140Z,69.03
2019-01-15T10:16:37.711Z,68.85
2019-01-15T10:19:10.272Z,72.03
2019-01-15T10:21:43.384Z,70.24
2019-01-15T10:24:15.982Z,67.32
2019-01-15T10:26:48.893Z,68.38
2019-01-15T10:29:23.209Z,63.68
2019-01-15T10:32:45.754Z,60.08
2019-01-15T10:35:52.104Z,59.80
2019-01-15T10:38:26.056Z,53.52
2019-01-15T10:40:59.269Z,55.00
2019-01-15T10:43:33.846Z,52.35
2019-01-15T10:46:07.804Z,50.00
2019-01-15T10:48:40.522Z,50.47
2019-01-15T10:51:13.255Z,58.33
2019-01-15T10:53:45.916Z,60.66
2019-01-15T10:56:18.577Z,61.55
2019-01-15T10:58:51.227Z,61.53
2019-01-15T11:01:23.974Z,62.28
2019-01-15T11:03:57.271Z,63.51
2019-01-15T11:06:30.002Z,60.95
2019-01-15T11:09:04.486Z,62.40
2019-01-15T11:11:37.317Z,60.77
2019-01-15T11:14:13.184Z,55.02
2019-01-15T11:16:45.112Z,56.98
2019-01-15T11:19:18.055Z,59.06
2019-01-15T11:21:50.922Z,61.19
2019-01-15T11:24:26.572Z,58.03
2019-01-15T11:26:59.425Z,58.41
2019-01-15T11:29:32.155Z,57.41
2019-01-15T11:32:05.033Z,58.43
2019-01-15T11:34:37.933Z,60.04
2019-01-15T11:37:10.717Z,55.16
2019-01-15T11:39:44.642Z,60.60
2019-01-15T11:42:17.322Z,58.18
2019-01-15T11:44:50.019Z,57.34
2019-01-15T11:47:22.705Z,56.56
2019-01-15T11:49:55.478Z,55.48
2019-01-15T11:52:28.263Z,54.56
2019-01-15T11:55:01.050Z,54.75
2019-01-15T11:57:33.841Z,57.45
2019-01-15T12:00:14.947Z,58.16
2019-01-15T12:03:02.335Z,58.09
2019-01-15T12:05:48.156Z,56.60
2019-01-15T12:08:34.775Z,56.18
2019-01-15T12:11:25.174Z,55.72
2019-01-15T12:14:17.938Z,58.42
2019-01-15T12:17:24.791Z,56.92
2019-01-15T12:20:06.816Z,52.62
2019-01-15T12:23:02.227Z,55.00
2019-01-15T12:25:54.022Z,51.61
2019-01-15T12:28:44.294Z,53.66
2019-01-15T12:31:41.868Z,50.95
2019-01-15T12:34:32.078Z,51.35
2019-01-15T12:37:38.998Z,47.16
2019-01-15T12:40:33.649Z,51.68
2019-01-15T12:43:23.913Z,48.32
2019-01-15T12:46:20.697Z,49.46
2019-01-15T12:49:20.384Z,47.00
2019-01-15T12:52:21.264Z,46.98
2019-01-15T12:55:12.834Z,51.38
2019-01-15T12:58:07.540Z,56.16
2019-01-15T13:01:11.476Z,53.05
2019-01-15T13:04:03.072Z,56.78
2019-01-15T13:06:53.464Z,58.46
2019-01-15T13:09:54.110Z,58.73
2019-01-15T13:12:51.401Z,59.25
2019-01-15T13:15:49.059Z,60.93
2019-01-15T13:18:34.953Z,58.77
2019-01-15T13:21:35.545Z,59.51
2019-01-15T13:24:25.794Z,56.51
2019-01-15T13:27:32.295Z,57.44
2019-01-15T13:30:32.855Z,61.85
2019-01-15T13:33:24.446Z,60.52
2019-01-15T13:36:18.894Z,60.05
2019-01-15T13:39:10.338Z,60.48
2019-01-15T13:42:01.827Z,60.53
2019-01-15T13:44:53.395Z,60.70
2019-01-15T13:47:50.727Z,59.71
2019-01-15T13:50:51.445Z,62.02
2019-01-15T13:53:41.901Z,60.93
2019-01-15T13:56:33.382Z,60.44
2019-01-15T13:59:24.861Z,62.02
2019-01-15T14:02:19.379Z,62.43
2019-01-15T14:05:13.743Z,63.03
2019-01-15T14:08:04.868Z,66.69
2019-01-15T14:11:08.902Z,65.63
2019-01-15T14:14:04.912Z,66.00
2019-01-15T14:16:47.618Z,63.83
2019-01-15T14:19:51.087Z,62.92
2019-01-15T14:22:48.656Z,65.96
2019-01-15T14:25:39.179Z,65.62
2019-01-15T14:28:29.682Z,65.42
2019-01-15T14:31:33.214Z,65.32
2019-01-15T14:34:19.942Z,62.43
2019-01-15T14:37:14.325Z,64.78
2019-01-15T14:40:04.586Z,62.75
2019-01-15T14:43:05.416Z,66.31
2019-01-15T14:46:05.182Z,64.29
2019-01-15T14:48:55.274Z,61.83
2019-01-15T14:51:39.797Z,63.25
2019-01-15T14:54:25.527Z,65.45
2019-01-15T14:57:24.461Z,62.09
2019-01-15T15:00:20.265Z,62.01
2019-01-15T15:03:08.221Z,61.29
2019-01-15T15:05:49.759Z,61.01
2019-01-15T15:09:00.182Z,61.52
2019-01-15T15:11:54.519Z,61.28
2019-01-15T15:14:45.478Z,65.32
2019-01-15T15:17:35.843Z,63.89
2019-01-15T15:20:50.855Z,63.17
2019-01-15T15:23:35.147Z,66.29
2019-01-15T15:26:32.589Z,63.24
2019-01-15T15:29:22.963Z,63.57
2019-01-15T15:32:18.370Z,65.48
2019-01-15T15:35:18.987Z,65.29
2019-01-15T15:38:05.974Z,62.37
2019-01-15T15:41:12.551Z,64.19
2019-01-15T15:44:00.526Z,68.11
2019-01-15T15:46:50.756Z,69.00
2019-01-15T15:49:34.990Z,69.08
2019-01-15T15:52:23.810Z,69.86
2019-01-15T15:55:15.374Z,70.92
2019-01-15T15:58:01.786Z,69.27
2019-01-15T16:00:52.546Z,70.50
2019-01-15T16:03:42.570Z,72.20
2019-01-15T16:06:39.864Z,72.60
2019-01-15T16:09:49.590Z,66.99
2019-01-15T16:12:33.743Z,69.50
2019-01-15T16:15:18.285Z,69.61
2019-01-15T16:18:25.852Z,67.90
2019-01-15T16:21:16.260Z,71.06
2019-01-15T16:24:06.663Z,72.64
2019-01-15T16:27:07.111Z,73.13
2019-01-15T16:29:57.259Z,74.39
2019-01-15T16:33:00.739Z,74.60
2019-01-15T16:35:51.492Z,73.93
2019-01-15T16:38:41.742Z,74.79
2019-01-15T16:41:33.194Z,75.14
2019-01-15T16:44:23.429Z,74.98
2019-01-15T16:47:12.783Z,75.83
2019-01-15T16:50:00.711Z,76.49
2019-01-15T16:53:07.331Z,76.98
2019-01-15T16:56:01.699Z,77.56
2019-01-15T16:58:51.906Z,77.44
2019-01-15T17:01:41.909Z,77.54
2019-01-15T17:04:36.342Z,77.93
2019-01-15T17:07:30.395Z,79.68
2019-01-15T17:10:20.487Z,81.52
2019-01-15T17:13:11.019Z,82.15
2019-01-15T17:16:21.874Z,82.60
2019-01-15T17:19:05.668Z,83.17
2019-01-15T17:21:53.872Z,83.25
2019-01-15T17:24:51.070Z,84.01
2019-01-15T17:27:45.895Z,84.47
2019-01-15T17:30:57.705Z,85.13
2019-01-15T17:33:55.137Z,85.82
2019-01-15T17:36:49.674Z,85.68
2019-01-15T17:39:44.544Z,85.97
2019-01-15T17:42:39.091Z,85.22
2019-01-15T17:45:39.495Z,85.61
2019-01-15T17:48:29.948Z,85.71
2019-01-15T17:51:20.271Z,85.93
2019-01-15T17:54:14.767Z,85.82
2019-01-15T17:57:15.504Z,86.34
2019-01-15T18:00:46.415Z,86.66
2019-01-15T18:03:40.685Z,86.78
2019-01-15T18:06:30.431Z,86.86
2019-01-15T18:09:31.244Z,86.73
2019-01-15T18:12:21.374Z,87.22
2019-01-15T18:15:21.896Z,87.29
2019-01-15T18:18:11.889Z,87.52
2019-01-15T18:21:15.634Z,87.50
2019-01-15T18:24:25.213Z,87.67
2019-01-15T18:27:08.589Z,87.90
2019-01-15T18:29:58.752Z,88.09
2019-01-15T18:32:48.031Z,88.34
2019-01-15T18:35:45.708Z,87.93
2019-01-15T18:38:35.907Z,87.84
2019-01-15T18:41:33.421Z,88.02
2019-01-15T18:44:23.718Z,87.92
2019-01-15T18:47:15.190Z,87.87
2019-01-15T18:50:05.668Z,88.00
2019-01-15T18:52:53.363Z,88.12
2019-01-15T18:55:57.131Z,88.08
2019-01-15T18:58:47.565Z,88.15
2019-01-15T19:01:48.032Z,88.12
2019-01-15T19:04:38.248Z,88.60
2019-01-15T19:07:48.072Z,88.64
2019-01-15T19:10:39.562Z,88.60
2019-01-15T19:13:23.363Z,88.60
2019-01-15T19:16:26.944Z,88.19
2019-01-15T19:19:20.401Z,88.25
2019-01-15T19:22:10.721Z,88.26
2019-01-15T19:25:00.733Z,88.62
2019-01-15T19:28:01.550Z,88.57
2019-01-15T19:31:08.980Z,88.44
2019-01-15T19:33:56.815Z,88.64
2019-01-15T19:36:52.083Z,88.55
2019-01-15T19:39:37.375Z,88.39
2019-01-15T19:42:27.683Z,88.40
2019-01-15T19:45:18.176Z,88.83
2019-01-15T19:48:10.739Z,88.84
2019-01-15T19:51:08.033Z,88.66
2019-01-15T19:53:59.204Z,88.66
2019-01-15T19:56:53.852Z,88.89
2019-01-15T19:59:45.345Z,89.26
2019-01-15T20:02:35.680Z,89.39
2019-01-15T20:05:26.708Z,89.45
2019-01-15T20:08:20.955Z,89.75
2019-01-15T20:11:11.309Z,89.67
2019-01-15T20:14:02.946Z,89.79
2019-01-15T20:16:57.568Z,89.60
2019-01-15T20:19:57.233Z,89.65
2019-01-15T20:23:00.770Z,89.71
2019-01-15T20:25:43.833Z,89.82
2019-01-15T20:28:41.061Z,89.94
2019-01-15T20:31:31.437Z,89.62
2019-01-15T20:34:23.608Z,89.60
2019-01-15T20:37:15.106Z,89.67
2019-01-15T20:40:18.534Z,89.56
2019-01-15T20:43:12.862Z,89.46
2019-01-15T20:45:58.888Z,89.75
2019-01-15T20:49:05.625Z,89.33
2019-01-15T20:52:12.008Z,89.11
2019-01-15T20:54:59.913Z,89.56
2019-01-15T20:57:47.620Z,89.96
2019-01-15T21:00:39.195Z,90.19
2019-01-15T21:03:29.585Z,90.22
2019-01-15T21:06:12.812Z,90.05
2019-01-15T21:09:22.307Z,89.95
2019-01-15T21:12:28.853Z,90.04
2019-01-15T21:15:29.386Z,90.31
2019-01-15T21:18:20.276Z,90.43
2019-01-15T21:21:10.358Z,90.68
2019-01-15T21:24:14.188Z,90.42
2019-01-15T21:27:04.243Z,90.23
2019-01-15T21:29:54.273Z,90.19
2019-01-15T21:32:44.593Z,90.10
2019-01-15T21:35:36.147Z,89.99
2019-01-15T21:38:25.003Z,89.94
2019-01-15T21:41:13.119Z,90.00
2019-01-15T21:44:03.370Z,90.20
2019-01-15T21:46:53.499Z,90.25
2019-01-15T21:49:45.094Z,90.76
2019-01-15T21:52:51.856Z,90.73
2019-01-15T21:55:33.173Z,90.70
2019-01-15T21:58:14.974Z,90.96
2019-01-15T22:01:06.414Z,90.84
2019-01-15T22:03:54.867Z,90.83
2019-01-15T22:06:40.808Z,90.77
2019-01-15T22:09:32.335Z,90.61
2019-01-15T22:12:17.109Z,90.18
2019-01-15T22:15:14.567Z,90.28
2019-01-15T22:18:06.166Z,90.70
2019-01-15T22:20:56.563Z,90.79
2019-01-15T22:23:48.103Z,90.68
2019-01-15T22:26:48.461Z,90.49
2019-01-15T22:29:55.087Z,90.51
2019-01-15T22:32:55.525Z,90.53
2019-01-15T22:35:45.685Z,90.62
2019-01-15T22:38:27.127Z,90.59
2019-01-15T22:41:17.787Z,90.59
2019-01-15T22:44:09.234Z,91.08
2019-01-15T22:47:03.716Z,91.25
2019-01-15T22:49:55.220Z,91.23
2019-01-15T22:52:41.272Z,91.23
2019-01-15T22:55:37.830Z,91.08
2019-01-15T22:58:18.491Z,90.91
2019-01-15T23:01:17.663Z,90.79
2019-01-15T23:04:09.168Z,90.87
2019-01-15T23:07:02.361Z,91.05
2019-01-15T23:09:53.850Z,91.05
2019-01-15T23:12:43.892Z,91.07
2019-01-15T23:15:38.625Z,91.31
2019-01-15T23:18:36.497Z,91.22
2019-01-15T23:21:26.756Z,90.81
2019-01-15T23:24:17.069Z,90.93
2019-01-15T23:27:07.315Z,91.00
2019-01-15T23:30:10.870Z,91.12
2019-01-15T23:36:05.371Z,91.24
2019-01-15T23:38:55.720Z,91.52
2019-01-15T23:41:56.257Z,91.41
2019-01-15T23:44:50.875Z,91.28
2019-01-15T23:47:44.968Z,91.08
2019-01-15T23:50:45.379Z,90.83
2019-01-15T23:53:36.294Z,90.82
2019-01-15T23:56:30.386Z,91.12
2019-01-15T23:59:27.854Z,91.37
